Time;durP1;ratioP1;P1;durP2;ratioP2;P2;SDS_P1;SDS_P2;PMS_P1;PMS_P2;Temp;Humidity;BMP_temperature;BMP_pressure;BME280_temperature;BME280_humidity;BME280_pressure;Samples;Min_cycle;Max_cycle;Signal;HPM_P1;HPM_P2
2021/10/30 00:02:03;;;;;;;;;8.25;8.25;;;;;20.99;46.38;99783.75;5015612;28;46241;-57
2021/10/30 00:04:28;;;;;;;;;11.25;8.25;;;;;20.98;46.59;99779.44;5014246;28;45412;-58
2021/10/30 00:06:55;;;;;;;;;8.75;7.75;;;;;20.97;46.13;99775.13;5015910;28;45373;-55
2021/10/30 00:09:21;;;;;;;;;8.75;7.00;;;;;20.96;46.69;99762.91;5016400;28;45581;-59
2021/10/30 00:11:46;;;;;;;;;10.25;8.75;;;;;20.96;46.21;99762.91;5015359;28;45770;-60
2021/10/30 00:14:12;;;;;;;;;9.00;8.00;;;;;20.97;46.59;99760.19;5015560;28;45511;-59
2021/10/30 00:16:38;;;;;;;;;8.00;8.00;;;;;20.96;46.29;99761.13;5015599;28;45653;-55
2021/10/30 00:19:04;;;;;;;;;9.75;8.75;;;;;20.96;46.51;99762.91;5015759;28;45575;-54
2021/10/30 00:21:30;;;;;;;;;8.25;8.25;;;;;20.95;46.47;99751.53;5015167;28;45472;-55
2021/10/30 00:23:56;;;;;;;;;10.50;7.75;;;;;20.95;46.38;99742.78;5018400;28;45756;-49
2021/10/30 00:26:21;;;;;;;;;8.75;8.50;;;;;20.95;46.54;99748.06;5019366;28;45365;-49
2021/10/30 00:28:47;;;;;;;;;8.75;8.00;;;;;20.92;46.69;99737.78;5001219;28;45376;-45
2021/10/30 00:31:13;;;;;;;;;6.25;6.25;;;;;20.94;46.83;99739.31;5019010;28;45349;-45
2021/10/30 00:33:38;;;;;;;;;9.25;9.00;;;;;20.93;46.87;99742.91;5018717;28;45367;-48
2021/10/30 00:36:04;;;;;;;;;8.00;8.00;;;;;20.93;46.37;99736.81;5018881;28;45262;-51
2021/10/30 00:38:30;;;;;;;;;9.25;8.75;;;;;20.94;46.50;99733.22;5019049;28;45621;-48
2021/10/30 00:40:55;;;;;;;;;8.00;8.00;;;;;20.92;46.38;99732.50;5018377;28;45443;-56
2021/10/30 00:43:21;;;;;;;;;8.25;7.50;;;;;20.92;46.53;99735.13;5019045;28;45407;-56
2021/10/30 00:45:47;;;;;;;;;8.50;8.00;;;;;20.92;46.37;99724.59;5018764;28;45512;-58
2021/10/30 00:48:14;;;;;;;;;9.00;8.00;;;;;20.87;46.95;99713.56;5019002;28;45416;-54
2021/10/30 00:50:40;;;;;;;;;8.50;8.50;;;;;20.90;46.82;99722.06;5018626;28;45496;-60
2021/10/30 00:53:06;;;;;;;;;8.25;8.25;;;;;20.91;46.84;99717.66;5018383;28;45484;-57
2021/10/30 00:55:32;;;;;;;;;10.25;8.25;;;;;20.85;47.01;99708.41;5018689;28;45250;-58
2021/10/30 00:58:00;;;;;;;;;8.00;8.00;;;;;20.90;46.53;99710.69;5018909;28;45579;-51
2021/10/30 01:00:26;;;;;;;;;8.75;7.50;;;;;20.88;46.89;99716.09;5018471;28;46456;-55
2021/10/30 01:02:52;;;;;;;;;8.75;8.75;;;;;20.89;46.52;99711.66;5018631;28;45321;-57
2021/10/30 01:05:18;;;;;;;;;11.25;10.00;;;;;20.88;46.90;99699.44;5018592;28;45427;-61
2021/10/30 01:07:44;;;;;;;;;10.50;8.50;;;;;20.89;46.55;99699.31;5018718;28;45405;-56
2021/10/30 01:10:09;;;;;;;;;12.25;9.25;;;;;20.88;46.86;99688.91;5018093;28;45487;-60
2021/10/30 01:12:34;;;;;;;;;8.00;8.00;;;;;20.86;46.74;99683.75;5018177;28;45527;-56
2021/10/30 01:15:03;;;;;;;;;10.00;7.00;;;;;20.87;46.68;99688.06;5018328;28;45351;-57
2021/10/30 01:17:29;;;;;;;;;10.00;9.50;;;;;20.86;46.93;99683.75;5018338;28;45486;-57
2021/10/30 01:19:54;;;;;;;;;8.75;8.00;;;;;20.87;47.14;99684.59;5018387;28;45413;-61
2021/10/30 01:22:21;;;;;;;;;8.50;8.00;;;;;20.85;46.60;99677.63;5017856;28;45354;-51
2021/10/30 01:24:48;;;;;;;;;10.00;8.75;;;;;20.85;46.56;99672.38;5018240;28;45369;-53
2021/10/30 01:27:18;;;;;;;;;9.25;8.50;;;;;20.86;46.31;99673.22;5018317;28;45496;-59
2021/10/30 01:29:47;;;;;;;;;9.50;8.25;;;;;20.85;47.02;99668.91;5017911;28;46227;-59
2021/10/30 01:32:16;;;;;;;;;8.00;8.00;;;;;20.86;46.91;99667.97;5018003;28;45983;-59
2021/10/30 01:34:42;;;;;;;;;10.25;8.75;;;;;20.85;46.50;99661.00;5016532;28;45323;-54
2021/10/30 01:37:07;;;;;;;;;7.75;6.00;;;;;20.82;47.03;99658.59;5017787;28;45684;-60
2021/10/30 01:39:34;;;;;;;;;6.50;5.50;;;;;20.83;47.09;99657.66;5017743;28;46419;-56
2021/10/30 01:41:59;;;;;;;;;8.75;8.75;;;;;20.82;47.13;99654.19;5017474;28;45547;-55
2021/10/30 01:44:26;;;;;;;;;7.25;7.25;;;;;20.82;46.95;99654.19;5018246;28;45498;-60
2021/10/30 01:47:09;;;;;;;;;8.25;8.25;;;;;20.84;46.62;99652.25;5018103;28;45575;-60
2021/10/30 01:49:34;;;;;;;;;6.25;6.25;;;;;20.81;46.52;99649.00;5017676;28;45403;-60
2021/10/30 01:52:00;;;;;;;;;7.25;7.25;;;;;20.82;46.80;99645.44;5017778;28;45503;-57
2021/10/30 01:54:26;;;;;;;;;8.00;8.00;;;;;20.82;47.08;99634.91;5017838;28;45480;-59
2021/10/30 01:56:51;;;;;;;;;6.75;6.75;;;;;20.82;46.77;99632.25;5017941;28;45314;-61
2021/10/30 01:59:17;;;;;;;;;6.00;6.00;;;;;20.82;47.19;99625.22;5017465;28;45487;-57
2021/10/30 02:01:42;;;;;;;;;7.75;7.25;;;;;20.81;46.56;99627.94;5017277;28;45481;-57
2021/10/30 02:04:08;;;;;;;;;8.25;8.25;;;;;20.82;46.80;99625.22;5017405;28;45407;-60
2021/10/30 02:06:33;;;;;;;;;8.00;8.00;;;;;20.82;46.93;99614.69;5017605;28;45433;-59
2021/10/30 02:08:58;;;;;;;;;6.50;6.50;;;;;20.82;47.02;99619.09;5017358;28;46260;-54
2021/10/30 02:11:24;;;;;;;;;9.00;6.75;;;;;20.81;47.11;99598.97;5017455;28;45469;-60
2021/10/30 02:13:49;;;;;;;;;10.00;9.00;;;;;20.81;46.63;99596.34;5017114;28;45282;-60
2021/10/30 02:16:14;;;;;;;;;7.00;6.75;;;;;20.81;47.06;99585.81;5017354;28;45604;-56
2021/10/30 02:18:43;;;;;;;;;5.25;5.25;;;;;20.79;46.63;99578.03;4999090;28;46378;-60
2021/10/30 02:21:08;;;;;;;;;5.50;5.50;;;;;20.80;46.84;99578.88;5017283;28;45929;-59
2021/10/30 02:23:34;;;;;;;;;7.00;7.00;;;;;20.79;46.64;99571.94;5017365;28;45713;-58
2021/10/30 02:25:59;;;;;;;;;7.75;7.50;;;;;20.79;46.77;99571.94;5017498;28;45566;-47
2021/10/30 02:28:24;;;;;;;;;6.75;6.75;;;;;20.77;47.00;99568.59;5016424;28;45230;-60
2021/10/30 02:30:50;;;;;;;;;6.00;6.00;;;;;20.78;47.27;99565.00;5016979;28;45556;-58
2021/10/30 02:33:15;;;;;;;;;7.75;7.50;;;;;20.78;46.73;99567.66;5016975;28;45515;-58
2021/10/30 02:35:41;;;;;;;;;6.25;6.25;;;;;20.79;46.85;99562.25;5017238;28;45365;-56
2021/10/30 02:38:06;;;;;;;;;6.00;5.00;;;;;20.77;47.16;99558.06;5016782;28;47410;-48
2021/10/30 02:40:32;;;;;;;;;6.75;6.75;;;;;20.75;47.09;99538.91;5017066;28;45425;-45
2021/10/30 02:42:57;;;;;;;;;5.75;5.75;;;;;20.76;47.13;99541.41;5017085;28;45321;-48
2021/10/30 02:45:22;;;;;;;;;6.00;5.00;;;;;20.77;46.90;99542.25;5016626;28;45416;-50
2021/10/30 02:47:48;;;;;;;;;6.00;6.00;;;;;20.75;46.97;99539.72;5016461;28;46351;-47
2021/10/30 02:50:14;;;;;;;;;8.50;7.00;;;;;20.77;47.16;99537.81;5016731;28;45429;-48
2021/10/30 02:52:40;;;;;;;;;6.25;6.00;;;;;20.77;47.13;99537.00;5016792;28;45389;-48
2021/10/30 02:55:06;;;;;;;;;6.25;6.25;;;;;20.77;47.43;99534.38;5017005;28;45619;-52
2021/10/30 02:57:32;;;;;;;;;5.00;5.00;;;;;20.77;47.25;99534.38;5016544;28;45598;-50
2021/10/30 02:59:57;;;;;;;;;6.50;6.50;;;;;20.76;47.34;99530.06;4999116;28;45400;-56
2021/10/30 03:02:22;;;;;;;;;6.25;6.25;;;;;20.76;47.10;99520.34;5016558;28;45228;-59
2021/10/30 03:04:48;;;;;;;;;8.50;7.00;;;;;20.76;47.09;99515.06;5016504;28;45477;-60
2021/10/30 03:07:14;;;;;;;;;8.00;6.75;;;;;20.76;47.22;99506.34;5016290;28;45471;-57
2021/10/30 03:09:39;;;;;;;;;6.75;6.75;;;;;20.74;47.44;99502.97;5016467;28;45320;-60
2021/10/30 03:12:05;;;;;;;;;7.75;6.75;;;;;20.76;47.36;99487.91;5016518;28;45315;-53
2021/10/30 03:14:30;;;;;;;;;7.00;5.25;;;;;20.75;47.54;99484.44;5017029;28;45582;-60
2021/10/30 03:16:56;;;;;;;;;6.25;5.75;;;;;20.75;47.10;99473.06;5016153;28;46318;-56
2021/10/30 03:19:21;;;;;;;;;7.00;7.00;;;;;20.72;46.95;99460.97;5016343;28;45377;-60
2021/10/30 03:21:47;;;;;;;;;8.25;5.50;;;;;20.72;47.19;99460.13;5016312;28;45414;-58
2021/10/30 03:24:12;;;;;;;;;4.50;4.50;;;;;20.73;47.03;99457.34;5016406;28;45503;-52
2021/10/30 03:26:37;;;;;;;;;8.75;8.75;;;;;20.72;47.13;99446.94;5016220;28;46665;-59
2021/10/30 03:29:03;;;;;;;;;6.50;6.00;;;;;20.73;47.23;99446.00;5016171;28;45334;-59
2021/10/30 03:31:28;;;;;;;;;6.00;6.00;;;;;20.73;47.48;99446.00;5016251;28;45723;-60
2021/10/30 03:33:53;;;;;;;;;3.00;3.00;;;;;20.73;46.97;99443.38;5016407;28;45352;-58
2021/10/30 03:36:19;;;;;;;;;7.50;6.50;;;;;20.72;47.59;99434.63;5016005;28;46448;-55
2021/10/30 03:38:44;;;;;;;;;8.50;7.00;;;;;20.72;47.59;99436.41;5015999;28;45412;-57
2021/10/30 03:41:10;;;;;;;;;6.75;6.75;;;;;20.69;47.45;99419.91;5016063;28;45358;-58
2021/10/30 03:43:35;;;;;;;;;9.50;8.50;;;;;20.70;47.63;99426.84;5015994;28;45637;-58
2021/10/30 03:46:01;;;;;;;;;5.25;5.25;;;;;20.72;47.22;99425.88;5016129;28;46265;-56
2021/10/30 03:48:26;;;;;;;;;5.75;5.75;;;;;20.70;47.32;99415.50;5015902;28;45297;-56
2021/10/30 03:50:52;;;;;;;;;5.50;5.00;;;;;20.68;47.53;99423.47;5016052;28;45175;-58
2021/10/30 03:53:19;;;;;;;;;7.75;5.50;;;;;20.71;47.66;99422.44;5015903;28;45522;-56
2021/10/30 03:55:49;;;;;;;;;7.00;6.75;;;;;20.70;47.11;99420.75;5015789;28;46255;-59
2021/10/30 03:58:15;;;;;;;;;6.00;6.00;;;;;20.70;47.46;99420.75;5018284;28;45793;-59
2021/10/30 04:00:41;;;;;;;;;5.00;5.00;;;;;20.70;47.33;99428.66;5019271;28;45355;-59
2021/10/30 04:03:06;;;;;;;;;7.00;6.00;;;;;20.72;47.76;99428.53;5019512;28;45326;-59
2021/10/30 04:05:32;;;;;;;;;7.00;7.00;;;;;20.71;47.36;99427.69;5019363;28;46097;-59
2021/10/30 04:07:57;;;;;;;;;6.50;5.25;;;;;20.75;47.51;99423.06;5019233;28;45187;-59
2021/10/30 04:10:23;;;;;;;;;5.25;5.25;;;;;20.78;47.69;99413.13;5019428;28;45220;-56
2021/10/30 04:12:48;;;;;;;;;8.00;7.00;;;;;20.84;48.08;99419.69;5019479;28;45567;-57
2021/10/30 04:15:13;;;;;;;;;7.50;6.50;;;;;20.88;47.84;99415.88;5018705;28;46018;-58
2021/10/30 04:17:39;;;;;;;;;6.25;5.25;;;;;20.94;47.52;99411.91;5019100;28;45441;-57
2021/10/30 04:20:05;;;;;;;;;8.00;6.25;;;;;20.99;47.95;99409.72;5019460;28;45322;-59
2021/10/30 04:22:30;;;;;;;;;6.75;5.00;;;;;21.05;47.42;99418.94;5019504;28;45547;-54
2021/10/30 04:24:57;;;;;;;;;8.75;6.50;;;;;21.10;47.23;99416.78;5018768;28;46765;-57
2021/10/30 04:27:23;;;;;;;;;6.00;6.00;;;;;21.14;47.59;99423.47;5019013;28;45434;-53
2021/10/30 04:29:48;;;;;;;;;3.75;3.75;;;;;21.17;47.19;99423.22;5018916;28;45439;-57
2021/10/30 04:32:15;;;;;;;;;6.25;6.25;;;;;21.20;47.19;99428.25;5001273;28;45566;-53
2021/10/30 04:34:45;;;;;;;;;5.75;5.00;;;;;21.23;47.60;99427.16;5018682;28;46095;-59
2021/10/30 04:37:15;;;;;;;;;5.00;4.25;;;;;21.26;47.52;99427.75;5018733;28;45868;-60
2021/10/30 04:39:51;;;;;;;;;8.00;6.25;;;;;21.29;47.17;99416.97;5019072;28;45688;-60
2021/10/30 04:42:18;;;;;;;;;4.00;4.00;;;;;21.31;47.29;99415.03;5019047;28;45234;-60
2021/10/30 04:44:44;;;;;;;;;6.50;6.50;;;;;21.34;47.31;99407.81;5018526;28;45479;-60
2021/10/30 04:47:10;;;;;;;;;5.00;5.00;;;;;21.36;47.13;99416.44;5018683;28;45945;-57
2021/10/30 04:49:37;;;;;;;;;5.00;5.00;;;;;21.38;46.84;99414.53;5019211;28;45474;-54
2021/10/30 04:52:11;;;;;;;;;6.00;4.50;;;;;21.40;47.04;99412.63;5019205;28;45505;-51
2021/10/30 04:54:37;;;;;;;;;8.00;6.00;;;;;21.39;47.05;99406.50;5018356;28;45450;-45
2021/10/30 04:57:02;;;;;;;;;5.00;4.00;;;;;21.41;47.08;99401.13;5018446;28;45468;-49
2021/10/30 04:59:28;;;;;;;;;7.00;6.00;;;;;21.42;47.25;99402.78;5018552;28;45441;-52
2021/10/30 05:01:54;;;;;;;;;7.75;5.00;;;;;21.41;47.28;99399.31;5018668;28;45316;-47
2021/10/30 05:04:19;;;;;;;;;6.50;6.50;;;;;21.43;46.82;99391.28;5000286;28;48483;-44
2021/10/30 05:06:45;;;;;;;;;5.75;4.50;;;;;21.42;47.08;99384.34;5017979;28;55965;-46
2021/10/30 05:09:10;;;;;;;;;6.00;5.25;;;;;21.44;47.27;99385.06;5018110;28;45310;-50
2021/10/30 05:11:35;;;;;;;;;4.00;4.00;;;;;21.44;47.26;99385.06;5018773;28;45286;-49
2021/10/30 05:14:01;;;;;;;;;5.50;4.00;;;;;21.44;46.93;99382.41;5018354;28;46438;-53
2021/10/30 05:16:27;;;;;;;;;6.25;5.00;;;;;21.43;46.86;99375.47;5018310;28;45439;-59
2021/10/30 05:18:52;;;;;;;;;5.00;3.50;;;;;21.43;46.96;99381.56;5018321;28;45232;-55
2021/10/30 05:21:17;;;;;;;;;5.00;5.00;;;;;21.42;47.08;99379.91;5018418;28;45679;-56
2021/10/30 05:23:43;;;;;;;;;5.75;5.75;;;;;21.43;47.08;99375.47;5018077;28;45716;-54
2021/10/30 05:26:08;;;;;;;;;7.00;5.75;;;;;21.42;46.88;99374.63;5018046;28;45365;-51
2021/10/30 05:28:35;;;;;;;;;4.25;4.00;;;;;21.42;46.70;99369.34;5000738;28;45349;-60
2021/10/30 05:31:01;;;;;;;;;6.00;6.00;;;;;21.42;47.03;99371.97;5018197;28;45544;-59
2021/10/30 05:33:27;;;;;;;;;6.25;6.25;;;;;21.43;47.16;99378.09;5017694;28;45669;-60
2021/10/30 05:35:52;;;;;;;;;4.00;4.00;;;;;21.41;47.33;99377.41;5017690;28;45407;-54
2021/10/30 05:38:18;;;;;;;;;5.50;4.25;;;;;21.42;47.22;99373.78;5018041;28;45507;-57
2021/10/30 05:40:45;;;;;;;;;5.75;5.75;;;;;21.41;46.98;99374.75;5017855;28;45406;-50
2021/10/30 05:43:13;;;;;;;;;7.25;6.00;;;;;21.41;47.41;99365.03;5017600;28;45522;-56
2021/10/30 05:45:39;;;;;;;;;7.00;7.00;;;;;21.40;46.95;99375.72;5017887;28;45632;-51
2021/10/30 05:48:06;;;;;;;;;4.00;4.00;;;;;21.39;47.38;99372.22;5018188;28;45190;-51
2021/10/30 05:50:32;;;;;;;;;5.00;5.00;;;;;21.40;46.96;99375.72;5018104;28;45634;-46
2021/10/30 05:52:57;;;;;;;;;4.00;4.00;;;;;21.40;47.32;99370.44;5017434;28;45444;-52
2021/10/30 05:55:23;;;;;;;;;5.00;5.00;;;;;21.39;47.23;99374.03;5017330;28;45380;-53
2021/10/30 05:57:48;;;;;;;;;4.50;4.50;;;;;21.36;47.19;99359.31;5017531;28;45412;-50
2021/10/30 06:00:14;;;;;;;;;6.50;5.75;;;;;21.37;47.33;99360.16;5017823;28;45573;-51
2021/10/30 06:02:39;;;;;;;;;4.25;4.25;;;;;21.35;47.29;99362.06;5000079;28;48279;-44
2021/10/30 06:05:05;;;;;;;;;3.75;3.50;;;;;21.37;47.61;99360.16;5017691;28;45360;-45
2021/10/30 06:07:30;;;;;;;;;4.50;4.50;;;;;21.35;47.21;99367.34;4999495;28;45262;-50
2021/10/30 06:09:56;;;;;;;;;6.00;6.00;;;;;21.36;47.55;99363.75;5017557;28;45602;-44
2021/10/30 06:12:21;;;;;;;;;4.00;4.00;;;;;21.34;47.53;99363.88;5017180;28;46312;-44
2021/10/30 06:14:46;;;;;;;;;5.00;5.00;;;;;21.33;47.42;99371.91;5017219;28;45365;-51
2021/10/30 06:17:12;;;;;;;;;4.50;4.50;;;;;21.29;47.28;99356.34;5017379;28;45306;-44
2021/10/30 06:19:37;;;;;;;;;4.00;4.00;;;;;21.32;47.34;99373.69;5016687;28;46420;-47
2021/10/30 06:22:02;;;;;;;;;4.00;4.00;;;;;21.29;47.18;99366.91;5017055;28;46177;-44
2021/10/30 06:24:28;;;;;;;;;5.00;5.00;;;;;21.28;47.63;99359.94;4999247;28;45395;-54
2021/10/30 06:26:53;;;;;;;;;4.25;3.75;;;;;21.29;47.30;99369.53;5017307;28;45239;-55
2021/10/30 06:29:18;;;;;;;;;3.75;3.75;;;;;21.26;47.67;99363.69;5017414;28;45235;-54
2021/10/30 06:31:44;;;;;;;;;5.00;5.00;;;;;21.26;47.08;99371.59;5016983;28;46258;-54
2021/10/30 06:34:10;;;;;;;;;6.00;4.00;;;;;21.25;47.59;99354.91;5017242;28;45164;-46
2021/10/30 06:36:36;;;;;;;;;5.00;5.00;;;;;21.26;47.79;99377.69;5017204;28;45479;-49
2021/10/30 06:39:02;;;;;;;;;6.00;6.00;;;;;21.24;47.28;99361.16;5017252;28;45376;-55
2021/10/30 06:41:27;;;;;;;;;4.50;4.50;;;;;21.25;47.60;99360.19;5016878;28;46062;-56
2021/10/30 06:43:52;;;;;;;;;3.25;3.25;;;;;21.24;47.74;99357.69;5016933;28;45369;-51
2021/10/30 06:46:18;;;;;;;;;4.00;4.00;;;;;21.18;47.79;99351.13;5016854;28;45429;-55
2021/10/30 06:48:43;;;;;;;;;4.75;4.75;;;;;21.21;47.37;99361.44;5017167;28;45313;-54
2021/10/30 06:51:10;;;;;;;;;6.25;5.00;;;;;21.23;47.94;99370.00;5016975;28;46521;-54
2021/10/30 06:53:35;;;;;;;;;4.00;4.00;;;;;21.22;48.02;99362.25;5016409;28;45440;-55
2021/10/30 06:56:00;;;;;;;;;4.00;4.00;;;;;21.25;48.04;99351.47;5016708;28;45766;-61
2021/10/30 06:58:28;;;;;;;;;3.00;3.00;;;;;21.24;48.22;99355.88;5016947;28;45424;-45
2021/10/30 07:00:53;;;;;;;;;5.00;4.00;;;;;21.27;47.89;99360.91;5016635;28;46323;-49
2021/10/30 07:03:19;;;;;;;;;4.25;4.25;;;;;21.26;48.13;99351.31;4998655;28;45706;-48
2021/10/30 07:05:45;;;;;;;;;5.25;4.25;;;;;21.29;47.65;99352.88;5016877;28;45221;-55
2021/10/30 07:08:10;;;;;;;;;4.25;4.25;;;;;21.29;47.97;99353.72;4999405;28;45680;-58
2021/10/30 07:10:36;;;;;;;;;4.25;4.25;;;;;21.29;48.04;99348.44;5016354;28;45588;-55
2021/10/30 07:13:01;;;;;;;;;4.75;3.75;;;;;21.28;47.96;99354.69;5016523;28;45360;-54
2021/10/30 07:15:26;;;;;;;;;7.00;5.00;;;;;21.25;47.73;99352.28;5016453;28;45381;-50
2021/10/30 07:17:51;;;;;;;;;2.00;2.00;;;;;21.24;48.19;99344.53;5016569;28;45557;-45
2021/10/30 07:20:17;;;;;;;;;3.00;3.00;;;;;21.23;48.02;99348.94;5016230;28;46229;-48
2021/10/30 07:22:47;;;;;;;;;4.75;4.00;;;;;21.22;48.49;99349.06;5016374;28;45404;-51
2021/10/30 07:25:14;;;;;;;;;4.75;4.75;;;;;21.23;47.96;99353.38;4999031;28;45357;-46
2021/10/30 07:27:40;;;;;;;;;4.00;4.00;;;;;21.16;47.80;99342.50;5016779;28;45550;-48
2021/10/30 07:30:07;;;;;;;;;3.00;3.00;;;;;21.18;47.95;99351.13;5016148;28;46262;-53
2021/10/30 07:32:32;;;;;;;;;3.00;3.00;;;;;21.18;47.92;99351.13;5016277;28;45858;-56
2021/10/30 07:34:58;;;;;;;;;4.25;3.00;;;;;21.17;48.23;99354.72;5016208;28;45521;-60
2021/10/30 07:37:23;;;;;;;;;6.25;4.00;;;;;21.16;48.27;99348.63;5016263;28;45333;-62
2021/10/30 07:39:49;;;;;;;;;3.00;3.00;;;;;21.11;48.13;99332.34;5016009;28;46230;-62
2021/10/30 07:42:14;;;;;;;;;3.00;3.00;;;;;21.15;48.13;99341.69;5016404;28;45436;-51
2021/10/30 07:44:40;;;;;;;;;3.75;3.75;;;;;21.15;47.90;99359.28;5016674;28;45886;-64
2021/10/30 07:47:09;;;;;;;;;4.50;4.50;;;;;21.13;47.91;99362.03;5016410;28;45657;-61
2021/10/30 07:49:35;;;;;;;;;3.50;3.50;;;;;21.13;47.97;99369.94;5015659;28;45534;-62
2021/10/30 07:52:02;;;;;;;;;4.00;4.00;;;;;21.13;47.92;99369.09;5015654;28;45206;-59
2021/10/30 07:54:27;;;;;;;;;5.25;4.25;;;;;21.11;48.00;99371.03;5016005;28;45313;-62
2021/10/30 07:56:53;;;;;;;;;4.00;4.00;;;;;21.09;48.38;99372.97;5016222;28;45310;-59
2021/10/30 07:59:18;;;;;;;;;3.50;3.50;;;;;21.10;47.80;99374.63;5015741;28;45604;-60
2021/10/30 08:01:44;;;;;;;;;3.50;3.50;;;;;21.10;48.18;99382.53;5016100;28;45377;-60
2021/10/30 08:04:09;;;;;;;;;3.50;3.50;;;;;21.09;48.16;99381.69;5015865;28;45447;-56
2021/10/30 08:06:34;;;;;;;;;3.00;3.00;;;;;21.09;48.18;99388.75;5015764;28;45328;-59
2021/10/30 08:09:00;;;;;;;;;2.25;2.25;;;;;21.09;48.21;99388.75;5015658;28;45971;-62
2021/10/30 08:11:26;;;;;;;;;5.00;4.00;;;;;21.08;48.30;99405.53;5015660;28;45500;-52
2021/10/30 08:13:52;;;;;;;;;6.50;4.00;;;;;21.06;47.99;99395.09;5015871;28;45349;-51
2021/10/30 08:16:17;;;;;;;;;5.00;5.00;;;;;21.07;48.05;99398.56;5015785;28;45393;-52
2021/10/30 08:18:43;;;;;;;;;5.25;4.00;;;;;21.06;47.82;99400.34;5015800;28;45623;-56
2021/10/30 08:21:09;;;;;;;;;4.25;4.25;;;;;21.05;48.06;99403.97;5015331;28;45333;-53
2021/10/30 08:23:34;;;;;;;;;4.00;3.25;;;;;21.06;47.91;99410.06;5015672;28;45692;-52
2021/10/30 08:25:59;;;;;;;;;6.00;3.00;;;;;21.03;48.06;99411.16;5015835;28;45297;-57
2021/10/30 08:28:25;;;;;;;;;5.75;3.50;;;;;21.01;48.33;99402.53;5015393;28;46291;-54
2021/10/30 08:30:50;;;;;;;;;3.00;3.00;;;;;21.04;47.91;99406.72;5015701;28;45357;-61
2021/10/30 08:33:16;;;;;;;;;5.00;3.50;;;;;21.04;47.79;99402.31;5015922;28;45492;-59
2021/10/30 08:35:41;;;;;;;;;3.00;3.00;;;;;21.04;47.93;99409.34;5015411;28;45722;-54
2021/10/30 08:38:09;;;;;;;;;3.25;2.50;;;;;21.04;47.70;99407.56;5015463;28;45345;-61
2021/10/30 08:40:39;;;;;;;;;6.00;5.00;;;;;21.03;47.87;99408.53;5015219;28;45802;-58
2021/10/30 08:43:06;;;;;;;;;3.50;3.50;;;;;21.01;47.85;99413.09;5016404;28;45594;-62
2021/10/30 08:45:32;;;;;;;;;3.25;3.25;;;;;21.01;47.79;99403.38;5018867;28;45662;-57
2021/10/30 08:48:00;;;;;;;;;4.50;4.00;;;;;21.03;48.19;99410.31;5018611;28;46156;-58
2021/10/30 08:50:27;;;;;;;;;3.50;3.50;;;;;21.01;47.72;99411.28;5018751;28;45401;-55
2021/10/30 08:52:52;;;;;;;;;3.00;3.00;;;;;21.03;47.91;99410.31;5018733;28;45384;-56
2021/10/30 08:55:17;;;;;;;;;2.25;2.25;;;;;21.03;47.85;99412.94;5019159;28;45207;-53
2021/10/30 08:57:43;;;;;;;;;4.75;4.75;;;;;21.03;48.05;99410.31;5018487;28;45407;-58
2021/10/30 09:00:25;;;;;;;;;2.75;2.75;;;;;21.01;47.69;99413.91;5018489;28;45364;-61
2021/10/30 09:02:55;;;;;;;;;3.00;3.00;;;;;21.01;48.05;99413.91;5018372;28;45360;-62
2021/10/30 09:05:23;;;;;;;;;5.00;3.50;;;;;21.01;47.80;99418.34;5018475;28;45408;-61
2021/10/30 09:07:53;;;;;;;;;3.25;3.25;;;;;21.00;48.22;99406.97;5018475;28;46395;-48
2021/10/30 09:10:22;;;;;;;;;4.75;4.75;;;;;20.98;47.92;99419.44;5018513;28;45768;-54
2021/10/30 09:13:00;;;;;;;;;4.00;2.75;;;;;21.03;48.33;99419.06;5018614;28;45541;-55
2021/10/30 09:15:46;;;;;;;;;3.25;3.25;;;;;21.05;48.30;99409.25;5000493;28;45336;-50
2021/10/30 09:18:32;;;;;;;;;4.00;3.25;;;;;21.05;48.60;99408.41;5018286;28;45376;-61
2021/10/30 09:20:57;;;;;;;;;4.00;4.00;;;;;21.04;48.43;99412.84;5018098;28;45330;-57
2021/10/30 09:23:28;;;;;;;;;3.50;3.50;;;;;21.03;48.56;99418.22;5018067;28;45476;-52
2021/10/30 09:26:02;;;;;;;;;4.00;2.75;;;;;21.03;48.53;99415.59;5018493;28;45361;-53
2021/10/30 09:28:36;;;;;;;;;6.00;4.75;;;;;21.01;48.29;99413.09;5018045;28;46180;-49
2021/10/30 09:31:09;;;;;;;;;4.00;3.00;;;;;21.01;48.63;99424.44;5018121;28;45455;-51
2021/10/30 09:33:47;;;;;;;;;5.00;4.00;;;;;20.98;48.61;99421.22;5018104;28;45429;-45
2021/10/30 09:36:13;;;;;;;;;4.00;4.00;;;;;21.01;49.30;99424.44;5018233;28;45416;-45
2021/10/30 09:38:41;;;;;;;;;4.00;4.00;;;;;21.00;49.65;99422.75;5017958;28;45674;-48
2021/10/30 09:41:25;;;;;;;;;2.50;2.50;;;;;21.03;50.13;99429.59;5018079;28;45354;-50
2021/10/30 09:43:54;;;;;;;;;4.00;4.00;;;;;21.04;50.75;99422.53;5018346;28;45364;-54
2021/10/30 09:46:19;;;;;;;;;4.00;3.75;;;;;21.01;50.42;99416.53;5001203;28;45357;-61
2021/10/30 09:48:45;;;;;;;;;5.75;4.00;;;;;21.01;50.89;99419.16;5017370;28;46123;-61
2021/10/30 09:51:27;;;;;;;;;6.00;3.75;;;;;21.02;50.79;99414.75;5000031;28;45524;-61
2021/10/30 09:53:52;;;;;;;;;4.00;4.00;;;;;21.01;51.44;99424.44;4999495;28;45391;-62
2021/10/30 09:56:18;;;;;;;;;3.00;3.00;;;;;21.00;51.37;99422.75;5017388;28;45418;-62
2021/10/30 09:58:46;;;;;;;;;3.00;3.00;;;;;21.03;51.33;99428.75;5017790;28;46173;-62
2021/10/30 10:01:15;;;;;;;;;5.00;4.00;;;;;21.03;51.07;99421.69;5017381;28;45937;-62
2021/10/30 10:03:42;;;;;;;;;4.25;3.00;;;;;21.01;51.26;99419.16;5017606;28;45401;-58
2021/10/30 10:06:11;;;;;;;;;3.25;3.25;;;;;21.03;51.24;99420.84;5017667;28;45401;-61
2021/10/30 10:08:42;;;;;;;;;5.00;5.00;;;;;21.03;51.09;99431.38;4999530;28;46202;-60
2021/10/30 10:11:15;;;;;;;;;4.00;4.00;;;;;21.01;51.10;99428.88;5017557;28;45866;-61
2021/10/30 10:13:44;;;;;;;;;3.25;3.25;;;;;21.01;50.96;99436.78;5017341;28;45493;-46
2021/10/30 10:16:19;;;;;;;;;3.00;3.00;;;;;21.01;50.89;99434.97;5017781;28;45231;-46
2021/10/30 10:18:46;;;;;;;;;3.75;3.75;;;;;21.02;51.39;99449.00;5017241;28;46534;-49
2021/10/30 10:21:17;;;;;;;;;5.00;3.25;;;;;21.01;50.72;99440.25;5017401;28;45884;-59
2021/10/30 10:23:43;;;;;;;;;3.75;3.75;;;;;21.00;51.12;99441.19;5017654;28;45324;-59
2021/10/30 10:26:09;;;;;;;;;4.00;3.00;;;;;21.00;51.09;99443.00;5017251;28;45218;-57
2021/10/30 10:28:38;;;;;;;;;4.00;4.00;;;;;21.00;51.12;99453.53;4999421;28;48543;-61
2021/10/30 10:31:07;;;;;;;;;4.00;3.00;;;;;20.98;51.08;99451.03;5017251;28;45396;-61
2021/10/30 10:33:32;;;;;;;;;4.25;4.00;;;;;20.99;50.73;99449.22;5017219;28;45427;-60
2021/10/30 10:36:13;;;;;;;;;4.25;4.25;;;;;20.97;51.06;99446.72;5017404;28;45659;-61
2021/10/30 10:38:56;;;;;;;;;2.75;2.75;;;;;20.98;51.04;99451.03;5016993;28;45857;-61
2021/10/30 10:41:36;;;;;;;;;4.25;3.00;;;;;20.98;50.60;99451.03;5017398;28;45845;-60
2021/10/30 10:44:12;;;;;;;;;5.00;3.75;;;;;20.98;50.49;99448.41;5017174;28;45398;-61
2021/10/30 10:46:42;;;;;;;;;4.25;3.00;;;;;20.98;50.84;99439.66;5017169;28;45223;-60
2021/10/30 10:49:27;;;;;;;;;3.00;3.00;;;;;20.98;50.74;99455.47;5016712;28;46293;-54
2021/10/30 10:52:02;;;;;;;;;3.00;3.00;;;;;20.96;50.28;99447.69;5017196;28;45488;-60
2021/10/30 10:54:48;;;;;;;;;4.00;3.25;;;;;20.91;50.78;99444.56;4999435;28;45406;-57
2021/10/30 10:57:21;;;;;;;;;5.00;4.00;;;;;20.96;50.71;99445.06;5017035;28;45514;-54
2021/10/30 10:59:57;;;;;;;;;3.00;3.00;;;;;20.96;50.73;99449.47;5016666;28;47021;-61
2021/10/30 11:02:28;;;;;;;;;5.00;3.50;;;;;20.95;50.51;99446.00;5016715;28;45716;-59
2021/10/30 11:05:08;;;;;;;;;2.00;2.00;;;;;20.97;50.28;99453.78;5017009;28;45345;-58
2021/10/30 11:07:40;;;;;;;;;3.00;3.00;;;;;20.95;50.19;99446.00;5016543;28;45416;-57
2021/10/30 11:10:13;;;;;;;;;2.00;2.00;;;;;20.95;50.11;99442.53;5016325;28;45404;-55
2021/10/30 11:13:01;;;;;;;;;4.00;4.00;;;;;20.95;50.18;99445.16;5016543;28;45218;-51
2021/10/30 11:15:41;;;;;;;;;3.00;3.00;;;;;20.96;50.67;99446.84;5016618;28;45432;-51
2021/10/30 11:18:14;;;;;;;;;3.00;3.00;;;;;20.94;50.19;99439.06;5016486;28;45364;-57
2021/10/30 11:20:45;;;;;;;;;3.00;3.00;;;;;20.94;50.18;99444.34;5016256;28;46180;-56
2021/10/30 11:23:30;;;;;;;;;3.00;3.00;;;;;20.93;50.23;99436.56;5016482;28;45853;-57
2021/10/30 11:26:09;;;;;;;;;3.25;3.00;;;;;20.93;50.54;99429.50;5016577;28;45175;-58
2021/10/30 11:28:38;;;;;;;;;3.00;3.00;;;;;20.94;50.05;99438.25;5016520;28;45410;-57
2021/10/30 11:31:15;;;;;;;;;2.25;2.25;;;;;20.92;50.06;99438.34;5016195;28;47291;-61
2021/10/30 11:33:41;;;;;;;;;4.00;4.00;;;;;20.93;50.07;99434.75;4999030;28;45302;-58
2021/10/30 11:36:15;;;;;;;;;1.75;1.75;;;;;20.93;49.93;99434.75;5016343;28;45409;-53